createdAt,value
2022-10-20T00:01:21.889Z,20.08
2022-10-20T00:03:49.145Z,20.95
2022-10-20T00:06:17.154Z,25.67
2022-10-20T00:08:44.624Z,21.40
2022-10-20T00:11:12.239Z,19.98
2022-10-20T00:13:39.490Z,22.95
2022-10-20T00:16:06.821Z,25.05
2022-10-20T00:18:33.942Z,26.52
2022-10-20T00:21:01.035Z,23.58
2022-10-20T00:23:28.122Z,24.70
2022-10-20T00:26:12.743Z,25.85
2022-10-20T00:28:39.854Z,26.30
2022-10-20T00:31:07.221Z,23.80
2022-10-20T00:33:34.572Z,29.35
2022-10-20T00:36:02.173Z,35.97
2022-10-20T00:38:29.315Z,31.27
2022-10-20T00:40:56.485Z,37.85
2022-10-20T00:43:23.697Z,41.08
2022-10-20T00:45:51.354Z,39.90
2022-10-20T00:48:19.777Z,40.97
2022-10-20T00:50:50.942Z,34.40
2022-10-20T00:53:18.060Z,31.60
2022-10-20T00:55:46.743Z,39.97
2022-10-20T00:58:13.882Z,35.15
2022-10-20T01:00:41.193Z,34.28
2022-10-20T01:03:08.686Z,39.25
2022-10-20T01:05:35.827Z,45.73
2022-10-20T01:08:02.945Z,43.40
2022-10-20T01:10:30.799Z,49.28
2022-10-20T01:12:58.006Z,38.27
2022-10-20T01:15:35.322Z,38.10
2022-10-20T01:18:07.847Z,40.83
2022-10-20T01:20:34.994Z,36.13
2022-10-20T01:23:04.978Z,41.23
2022-10-20T01:25:43.975Z,36.65
2022-10-20T01:28:13.180Z,39.90
2022-10-20T01:30:48.700Z,32.47
2022-10-20T01:33:42.195Z,30.05
2022-10-20T01:36:19.712Z,29.17
2022-10-20T01:38:51.257Z,32.45
2022-10-20T01:41:19.723Z,31.45
2022-10-20T01:43:46.855Z,35.13
2022-10-20T01:46:13.970Z,37.95
2022-10-20T01:48:41.073Z,36.63
2022-10-20T01:51:08.488Z,33.95
2022-10-20T01:53:35.619Z,42.17
2022-10-20T01:56:02.869Z,37.85
2022-10-20T01:58:29.934Z,40.15
2022-10-20T02:00:58.154Z,32.42
2022-10-20T02:03:25.292Z,37.00
2022-10-20T02:05:58.210Z,34.97
2022-10-20T02:08:43.570Z,32.80
2022-10-20T02:11:13.090Z,30.33
2022-10-20T02:13:40.152Z,31.00
2022-10-20T02:16:12.463Z,33.30
2022-10-20T02:19:01.462Z,34.50
2022-10-20T02:21:28.607Z,30.87
2022-10-20T02:23:55.757Z,32.47
2022-10-20T02:26:23.087Z,35.07
2022-10-20T02:28:54.374Z,26.67
2022-10-20T02:31:21.514Z,41.73
2022-10-20T02:33:48.603Z,33.57
2022-10-20T02:36:17.651Z,38.57
2022-10-20T02:38:44.763Z,40.67
2022-10-20T02:41:11.851Z,37.53
2022-10-20T02:43:39.019Z,45.77
2022-10-20T02:46:06.240Z,59.03
2022-10-20T02:48:33.371Z,58.17
2022-10-20T02:51:00.529Z,65.20
2022-10-20T02:53:27.610Z,73.47
2022-10-20T02:55:54.755Z,66.00
2022-10-20T02:58:21.866Z,61.27
2022-10-20T03:00:50.493Z,60.93
2022-10-20T03:03:18.441Z,50.50
2022-10-20T03:05:46.974Z,50.87
2022-10-20T03:08:14.224Z,48.40
2022-10-20T03:10:41.663Z,52.53
2022-10-20T03:13:08.877Z,51.40
2022-10-20T03:15:35.996Z,39.20
2022-10-20T03:18:03.088Z,38.73
2022-10-20T03:20:30.212Z,36.23
2022-10-20T03:22:57.297Z,42.70
2022-10-20T03:25:24.379Z,41.07
2022-10-20T03:27:51.533Z,43.03
2022-10-20T03:30:18.652Z,40.20
2022-10-20T03:32:45.734Z,36.37
2022-10-20T03:35:12.870Z,32.20
2022-10-20T03:37:39.958Z,33.67
2022-10-20T03:40:07.397Z,33.23
2022-10-20T03:42:34.907Z,39.03
2022-10-20T03:45:02.410Z,31.30
2022-10-20T03:47:29.505Z,37.77
2022-10-20T03:49:56.647Z,33.87
2022-10-20T03:52:23.742Z,35.97
2022-10-20T03:54:50.901Z,28.40
2022-10-20T03:57:18.032Z,29.97
2022-10-20T03:59:45.146Z,35.20
2022-10-20T04:02:44.833Z,34.37
2022-10-20T04:05:15.207Z,32.00
2022-10-20T04:07:42.307Z,30.63
2022-10-20T04:10:09.686Z,26.97
2022-10-20T04:12:37.103Z,29.27
2022-10-20T04:15:04.963Z,29.20
2022-10-20T04:17:32.152Z,30.30
2022-10-20T04:19:59.307Z,25.83
2022-10-20T04:22:26.394Z,27.60
2022-10-20T04:24:53.502Z,26.90
2022-10-20T04:27:20.605Z,25.90
2022-10-20T04:29:47.905Z,27.80
2022-10-20T04:32:15.061Z,27.47
2022-10-20T04:34:42.166Z,26.93
2022-10-20T04:37:09.255Z,28.23
2022-10-20T04:39:36.369Z,27.03
2022-10-20T04:42:03.458Z,28.70
2022-10-20T04:44:30.557Z,27.83
2022-10-20T04:46:57.693Z,34.43
2022-10-20T04:49:24.833Z,31.33
2022-10-20T04:51:51.935Z,27.10
2022-10-20T04:54:19.083Z,29.00
2022-10-20T04:56:46.165Z,26.63
2022-10-20T04:59:13.800Z,28.37
2022-10-20T05:01:41.190Z,24.53
2022-10-20T05:04:08.330Z,29.27
2022-10-20T05:06:35.466Z,26.33
2022-10-20T05:09:03.356Z,30.70
2022-10-20T05:11:30.725Z,27.73
2022-10-20T05:13:57.883Z,28.50
2022-10-20T05:16:25.029Z,29.20
2022-10-20T05:18:52.324Z,29.07
2022-10-20T05:21:20.214Z,26.73
2022-10-20T05:23:47.436Z,27.80
2022-10-20T05:26:15.610Z,30.10
2022-10-20T05:28:46.379Z,29.93
2022-10-20T05:31:13.528Z,32.00
2022-10-20T05:33:40.714Z,31.43
2022-10-20T05:36:10.946Z,34.77
2022-10-20T05:38:38.132Z,44.03
2022-10-20T05:41:08.081Z,50.80
2022-10-20T05:43:35.460Z,50.37
2022-10-20T05:46:02.807Z,58.07
2022-10-20T05:48:29.898Z,45.47
2022-10-20T05:50:56.981Z,47.80
2022-10-20T05:53:24.167Z,62.60
2022-10-20T05:55:51.294Z,64.20
2022-10-20T05:58:22.232Z,63.93
2022-10-20T06:00:52.924Z,50.53
2022-10-20T06:03:21.259Z,53.33
2022-10-20T06:05:54.795Z,62.17
2022-10-20T06:08:21.879Z,56.23
2022-10-20T06:10:48.968Z,73.43
2022-10-20T06:13:16.100Z,74.33
2022-10-20T06:15:43.214Z,78.67
2022-10-20T06:18:10.324Z,51.07
2022-10-20T06:20:37.451Z,53.03
2022-10-20T06:23:04.543Z,60.60
2022-10-20T06:25:31.776Z,66.57
2022-10-20T06:27:58.896Z,78.87
2022-10-20T06:30:25.984Z,87.27
2022-10-20T06:32:56.201Z,79.83
2022-10-20T06:35:23.347Z,82.30
2022-10-20T06:37:50.437Z,73.03
2022-10-20T06:40:17.627Z,72.47
2022-10-20T06:42:44.852Z,62.10
2022-10-20T06:45:14.368Z,55.33
2022-10-20T06:47:44.130Z,53.47
2022-10-20T06:50:11.293Z,34.67
2022-10-20T06:52:38.482Z,31.77
2022-10-20T06:55:06.075Z,39.50
2022-10-20T06:57:33.311Z,38.40
2022-10-20T07:00:00.403Z,45.60
2022-10-20T07:02:27.484Z,55.23
2022-10-20T07:04:54.643Z,42.50
2022-10-20T07:07:21.730Z,33.08
2022-10-20T07:09:48.811Z,43.97
2022-10-20T07:12:15.923Z,38.03
2022-10-20T07:14:43.019Z,36.92
2022-10-20T07:17:10.148Z,38.22
2022-10-20T07:19:37.277Z,33.17
2022-10-20T07:22:04.375Z,46.37
2022-10-20T07:24:31.493Z,35.35
2022-10-20T07:26:58.635Z,27.17
2022-10-20T07:29:25.762Z,36.03
2022-10-20T07:31:52.857Z,26.47
2022-10-20T07:34:26.102Z,25.63
2022-10-20T07:36:53.765Z,26.20
2022-10-20T07:39:20.947Z,26.80
2022-10-20T07:41:48.674Z,19.75
2022-10-20T07:44:16.246Z,22.35
2022-10-20T07:46:43.431Z,17.67
2022-10-20T07:49:39.274Z,22.30
2022-10-20T07:51:57.698Z,21.85
2022-10-20T07:54:24.853Z,21.40
2022-10-20T07:56:52.037Z,21.75
2022-10-20T07:59:19.218Z,19.63
2022-10-20T08:01:46.507Z,21.67
2022-10-20T08:04:13.749Z,19.17
2022-10-20T08:06:40.883Z,20.33
2022-10-20T08:09:08.236Z,15.57
2022-10-20T08:11:35.660Z,15.90
2022-10-20T08:14:02.838Z,21.27
2022-10-20T08:16:42.317Z,26.10
2022-10-20T08:19:30.659Z,23.83
2022-10-20T08:21:57.842Z,18.98
2022-10-20T08:24:24.925Z,18.48
2022-10-20T08:26:52.043Z,22.00
2022-10-20T08:29:19.246Z,23.17
2022-10-20T08:31:46.334Z,24.05
2022-10-20T08:34:13.516Z,18.77
2022-10-20T08:36:40.688Z,18.48
2022-10-20T08:39:07.767Z,18.80
2022-10-20T08:41:55.755Z,15.50
2022-10-20T08:44:31.355Z,17.23
2022-10-20T08:46:58.842Z,17.48
2022-10-20T08:49:26.713Z,15.32
2022-10-20T08:51:53.868Z,19.27
2022-10-20T08:54:21.038Z,19.00
2022-10-20T08:56:48.231Z,21.77
2022-10-20T08:59:24.601Z,18.50
2022-10-20T09:01:51.758Z,21.63
2022-10-20T09:04:23.249Z,20.35
2022-10-20T09:06:55.522Z,18.02
2022-10-20T09:09:22.651Z,17.48
2022-10-20T09:11:49.822Z,18.00
2022-10-20T09:14:17.063Z,17.92
2022-10-20T09:16:59.308Z,12.50
2022-10-20T09:19:27.629Z,11.57
2022-10-20T09:21:56.218Z,11.32
2022-10-20T09:24:23.573Z,11.23
2022-10-20T09:26:59.971Z,13.90
2022-10-20T09:29:37.495Z,8.18
2022-10-20T09:32:22.434Z,14.23
2022-10-20T09:34:51.721Z,9.57
2022-10-20T09:37:19.327Z,7.70
2022-10-20T09:39:57.036Z,9.05
2022-10-20T09:42:30.932Z,6.88
2022-10-20T09:45:01.995Z,8.40
2022-10-20T09:47:29.120Z,7.10
2022-10-20T09:50:01.250Z,5.43
2022-10-20T09:52:34.982Z,5.35
2022-10-20T09:55:03.285Z,5.72
2022-10-20T09:57:30.358Z,9.30
2022-10-20T10:00:04.517Z,8.68
2022-10-20T10:02:40.334Z,5.53
2022-10-20T10:05:19.060Z,4.68
2022-10-20T10:07:46.257Z,3.75
2022-10-20T10:10:19.369Z,4.40
2022-10-20T10:12:53.073Z,4.13
2022-10-20T10:15:23.031Z,3.50
2022-10-20T10:17:50.265Z,3.15
2022-10-20T10:20:17.384Z,4.82
2022-10-20T10:22:44.543Z,2.90
2022-10-20T10:25:20.026Z,3.42
2022-10-20T10:28:09.034Z,3.17
2022-10-20T10:30:37.258Z,5.88
2022-10-20T10:33:17.861Z,4.50
2022-10-20T10:35:44.987Z,4.93
2022-10-20T10:38:13.185Z,2.72
2022-10-20T10:40:40.293Z,2.05
2022-10-20T10:43:29.849Z,2.42
2022-10-20T10:46:09.794Z,3.05
2022-10-20T10:48:36.946Z,3.40
2022-10-20T10:51:05.681Z,3.13
2022-10-20T10:53:51.747Z,2.40
2022-10-20T10:56:37.618Z,2.75
2022-10-20T10:59:12.351Z,3.22
2022-10-20T11:01:39.427Z,2.22
2022-10-20T11:04:25.208Z,3.95
2022-10-20T11:06:57.961Z,4.03
2022-10-20T11:09:28.751Z,4.47
2022-10-20T11:11:55.827Z,2.97
2022-10-20T11:14:41.902Z,3.60
2022-10-20T11:17:11.994Z,3.08
2022-10-20T11:20:00.662Z,3.08
2022-10-20T11:22:35.827Z,3.72
2022-10-20T11:25:12.188Z,2.63
2022-10-20T11:27:39.514Z,3.50
2022-10-20T11:30:16.613Z,2.97
2022-10-20T11:32:46.548Z,2.25
2022-10-20T11:35:31.674Z,2.33
2022-10-20T11:38:07.842Z,2.63
2022-10-20T11:40:55.211Z,3.60
2022-10-20T11:43:37.670Z,3.03
2022-10-20T11:46:05.661Z,3.08
2022-10-20T11:48:35.863Z,2.80
2022-10-20T11:51:21.508Z,2.20
2022-10-20T11:53:57.708Z,2.55
2022-10-20T11:56:43.379Z,2.25
2022-10-20T11:59:29.291Z,2.03
2022-10-20T12:02:15.237Z,5.50
2022-10-20T12:05:00.535Z,4.18
2022-10-20T12:07:33.624Z,1.95
2022-10-20T12:10:06.593Z,6.40
2022-10-20T12:12:34.133Z,2.35
2022-10-20T12:15:01.889Z,2.67
2022-10-20T12:17:35.836Z,2.75
2022-10-20T12:20:21.492Z,2.53
2022-10-20T12:22:54.516Z,4.13
2022-10-20T12:25:25.023Z,2.22
2022-10-20T12:28:10.975Z,4.70
2022-10-20T12:30:38.109Z,3.28
2022-10-20T12:33:18.451Z,2.42
2022-10-20T12:35:58.656Z,3.38
2022-10-20T12:38:25.910Z,2.63
2022-10-20T12:40:57.974Z,2.92
2022-10-20T12:43:26.319Z,3.97
2022-10-20T12:45:53.479Z,2.40
2022-10-20T12:48:21.542Z,4.25
2022-10-20T12:50:50.182Z,4.63
2022-10-20T12:53:27.056Z,4.57
2022-10-20T12:55:58.285Z,2.65
2022-10-20T12:58:27.395Z,5.10
2022-10-20T13:00:54.599Z,3.10
2022-10-20T13:03:37.207Z,2.85
2022-10-20T13:06:24.443Z,2.90
2022-10-20T13:09:03.991Z,3.58
2022-10-20T13:11:43.274Z,4.82
2022-10-20T13:14:16.119Z,5.63
2022-10-20T13:17:03.658Z,30.33
2022-10-20T13:19:44.397Z,17.88
2022-10-20T13:22:30.254Z,5.47
2022-10-20T13:24:58.185Z,3.33
2022-10-20T13:27:25.402Z,8.82
2022-10-20T13:29:52.572Z,3.47
2022-10-20T13:32:19.729Z,9.70
2022-10-20T13:34:52.795Z,3.08
2022-10-20T13:37:35.229Z,11.55
2022-10-20T13:40:23.756Z,5.07
2022-10-20T13:42:57.609Z,7.07
2022-10-20T13:45:30.639Z,6.38
2022-10-20T13:48:03.630Z,14.50
2022-10-20T13:50:31.311Z,4.15
2022-10-20T13:52:59.394Z,4.03
2022-10-20T13:55:27.345Z,5.88
2022-10-20T13:57:58.301Z,4.00
2022-10-20T14:00:26.723Z,3.08
2022-10-20T14:02:58.331Z,3.13
2022-10-20T14:05:25.785Z,6.47
2022-10-20T14:07:53.259Z,3.20
2022-10-20T14:10:24.941Z,5.18
2022-10-20T14:12:52.496Z,5.65
2022-10-20T14:15:28.379Z,5.63
2022-10-20T14:17:56.767Z,6.03
2022-10-20T14:20:24.215Z,4.28
2022-10-20T14:22:53.614Z,5.00
2022-10-20T14:25:21.136Z,4.63
2022-10-20T14:27:48.391Z,3.50
2022-10-20T14:30:16.670Z,6.65
2022-10-20T14:32:44.152Z,3.97
2022-10-20T14:35:18.952Z,4.40
2022-10-20T14:37:47.510Z,4.35
2022-10-20T14:40:26.889Z,6.80
2022-10-20T14:42:54.151Z,7.40
2022-10-20T14:45:22.379Z,5.28
2022-10-20T14:47:49.624Z,6.53
2022-10-20T14:50:20.863Z,6.18
2022-10-20T14:52:52.901Z,4.78
2022-10-20T14:55:34.191Z,4.55
2022-10-20T14:58:01.357Z,4.50
2022-10-20T15:00:37.394Z,5.97
2022-10-20T15:03:06.931Z,7.07
2022-10-20T15:05:39.878Z,6.70
2022-10-20T15:08:21.861Z,8.57
2022-10-20T15:10:49.049Z,6.93
2022-10-20T15:13:26.486Z,6.65
2022-10-20T15:15:55.155Z,5.47
2022-10-20T15:18:23.962Z,5.22
2022-10-20T15:20:51.842Z,10.55
2022-10-20T15:23:19.090Z,14.55
2022-10-20T15:25:46.222Z,13.88
2022-10-20T15:28:33.664Z,28.00
2022-10-20T15:31:01.043Z,39.25
2022-10-20T15:33:28.208Z,50.42
2022-10-20T15:35:55.535Z,52.90
2022-10-20T15:38:22.782Z,68.78
2022-10-20T15:40:49.982Z,54.20
2022-10-20T15:43:17.554Z,39.85
2022-10-20T15:45:54.732Z,33.38
2022-10-20T15:48:23.967Z,40.10
2022-10-20T15:50:51.272Z,40.20
2022-10-20T15:53:18.488Z,37.28
2022-10-20T15:55:45.791Z,39.15
2022-10-20T15:58:13.003Z,34.10
2022-10-20T16:00:40.267Z,35.92
2022-10-20T16:03:07.496Z,46.17
2022-10-20T16:05:34.803Z,38.33
2022-10-20T16:08:01.987Z,39.50
2022-10-20T16:10:29.662Z,55.03
2022-10-20T16:12:57.841Z,42.03
2022-10-20T16:15:28.878Z,35.75
2022-10-20T16:17:58.321Z,45.15
2022-10-20T16:20:25.487Z,59.63
2022-10-20T16:22:52.624Z,48.60
2022-10-20T16:25:19.870Z,64.45
2022-10-20T16:27:47.051Z,46.25
2022-10-20T16:30:14.241Z,70.93
2022-10-20T16:32:41.784Z,74.32
2022-10-20T16:35:09.369Z,85.63
2022-10-20T16:37:36.883Z,110.43
2022-10-20T16:40:04.409Z,118.22
2022-10-20T16:42:32.406Z,91.03
2022-10-20T16:44:59.528Z,110.55
2022-10-20T16:47:26.767Z,104.50
2022-10-20T16:49:55.209Z,101.65
2022-10-20T16:52:22.415Z,130.07
2022-10-20T16:54:49.565Z,138.07
2022-10-20T16:57:16.731Z,123.13
2022-10-20T16:59:49.689Z,171.18
2022-10-20T17:02:17.590Z,147.93
2022-10-20T17:04:48.370Z,154.05
2022-10-20T17:07:15.603Z,150.07
2022-10-20T17:09:42.790Z,142.75
2022-10-20T17:12:09.980Z,114.72
2022-10-20T17:14:37.132Z,121.75
2022-10-20T17:19:49.062Z,88.93
2022-10-20T17:22:16.198Z,93.15
2022-10-20T17:24:43.335Z,71.38
2022-10-20T17:27:10.503Z,76.38
2022-10-20T17:29:37.668Z,90.38
2022-10-20T17:32:04.889Z,82.95
2022-10-20T17:34:32.090Z,75.53
2022-10-20T17:36:59.251Z,75.93
2022-10-20T17:39:27.788Z,83.15
2022-10-20T17:41:54.946Z,90.17
2022-10-20T17:44:22.096Z,106.90
2022-10-20T17:46:49.235Z,105.60
2022-10-20T17:49:16.394Z,117.03
2022-10-20T17:51:44.163Z,125.47
2022-10-20T17:54:11.347Z,108.80
2022-10-20T17:56:40.106Z,121.53
2022-10-20T17:59:08.777Z,119.05
2022-10-20T18:01:37.005Z,121.50
2022-10-20T18:04:08.253Z,123.47
2022-10-20T18:06:35.565Z,123.47
2022-10-20T18:09:04.396Z,129.23
2022-10-20T18:11:32.136Z,130.10
2022-10-20T18:13:59.931Z,156.00
2022-10-20T18:16:27.645Z,141.55
2022-10-20T18:21:25.502Z,146.70
2022-10-20T18:23:56.115Z,148.33
2022-10-20T18:26:23.351Z,131.60
2022-10-20T18:28:50.617Z,127.13
2022-10-20T18:31:24.950Z,125.20
2022-10-20T18:33:54.227Z,115.43
2022-10-20T18:36:21.394Z,114.77
2022-10-20T18:38:48.707Z,115.23
2022-10-20T18:41:17.120Z,112.10
2022-10-20T18:43:47.106Z,111.30
2022-10-20T18:46:14.631Z,120.97
2022-10-20T18:48:41.852Z,115.43
2022-10-20T18:51:09.423Z,186.60
2022-10-20T18:53:36.932Z,163.97
2022-10-20T18:56:04.077Z,148.17
2022-10-20T18:58:31.560Z,118.63
2022-10-20T19:00:59.509Z,107.97
2022-10-20T19:03:30.723Z,110.63
2022-10-20T19:05:58.918Z,126.00
2022-10-20T19:08:26.163Z,192.77
2022-10-20T19:10:53.297Z,151.37
2022-10-20T19:13:20.412Z,151.20
2022-10-20T19:15:47.606Z,220.90
2022-10-20T19:18:15.529Z,161.03
2022-10-20T19:20:42.711Z,167.77
2022-10-20T19:23:09.894Z,152.10
2022-10-20T19:25:37.036Z,140.43
2022-10-20T19:28:04.169Z,137.17
2022-10-20T19:30:34.032Z,134.23
2022-10-20T19:33:01.193Z,150.27
2022-10-20T19:35:28.366Z,135.20
2022-10-20T19:37:55.530Z,132.87
2022-10-20T19:40:26.145Z,116.30
2022-10-20T19:42:55.506Z,126.40
2022-10-20T19:45:22.644Z,121.37
2022-10-20T19:47:49.858Z,121.43
2022-10-20T19:50:17.011Z,132.40
2022-10-20T19:52:44.153Z,130.23
2022-10-20T19:55:11.270Z,132.13
2022-10-20T19:57:38.445Z,131.27
2022-10-20T20:00:05.850Z,134.37
2022-10-20T20:02:33.047Z,134.40
2022-10-20T20:05:00.215Z,144.27
2022-10-20T20:07:27.411Z,140.33
2022-10-20T20:09:54.567Z,155.03
2022-10-20T20:12:21.762Z,150.23
2022-10-20T20:14:48.904Z,125.00
2022-10-20T20:17:16.063Z,127.53
2022-10-20T20:19:43.249Z,121.83
2022-10-20T20:22:10.427Z,123.77
2022-10-20T20:24:38.894Z,106.03
2022-10-20T20:27:06.079Z,106.40
2022-10-20T20:29:33.242Z,94.93
2022-10-20T20:32:00.404Z,92.70
2022-10-20T20:34:27.596Z,94.97
2022-10-20T20:36:54.735Z,91.20
2022-10-20T20:39:21.961Z,106.70
2022-10-20T20:41:49.138Z,95.43
2022-10-20T20:44:16.382Z,97.20
2022-10-20T20:46:43.586Z,92.63
2022-10-20T20:49:10.758Z,93.67
2022-10-20T20:51:37.898Z,147.40
2022-10-20T20:54:05.081Z,176.00
2022-10-20T20:56:32.337Z,160.60
2022-10-20T20:58:59.470Z,156.10
2022-10-20T21:01:27.557Z,135.90
2022-10-20T21:03:58.881Z,132.73
2022-10-20T21:06:33.394Z,121.10
2022-10-20T21:09:01.510Z,107.63
2022-10-20T21:11:28.776Z,107.20
2022-10-20T21:13:56.181Z,101.63
2022-10-20T21:16:25.486Z,87.70
2022-10-20T21:18:53.509Z,88.57
2022-10-20T21:21:21.357Z,76.90
2022-10-20T21:23:48.522Z,81.53
2022-10-20T21:26:16.064Z,67.03
2022-10-20T21:28:43.331Z,78.60
2022-10-20T21:31:11.435Z,76.47
2022-10-20T21:33:38.759Z,79.17
2022-10-20T21:36:15.252Z,65.83
2022-10-20T21:38:42.474Z,63.30
2022-10-20T21:41:19.421Z,66.23
2022-10-20T21:43:47.465Z,55.50
2022-10-20T21:46:18.224Z,80.63
2022-10-20T21:48:45.565Z,66.67
2022-10-20T21:51:16.730Z,75.73
2022-10-20T21:53:43.895Z,75.00
2022-10-20T21:56:11.150Z,68.90
2022-10-20T21:58:38.397Z,73.03
2022-10-20T22:01:09.351Z,78.73
2022-10-20T22:03:36.567Z,87.17
2022-10-20T22:06:03.945Z,86.23
2022-10-20T22:08:31.159Z,81.67
2022-10-20T22:11:02.313Z,86.27
2022-10-20T22:13:29.446Z,87.47
2022-10-20T22:15:56.614Z,81.20
2022-10-20T22:18:23.792Z,85.37
2022-10-20T22:20:51.127Z,82.57
2022-10-20T22:23:18.346Z,71.33
2022-10-20T22:25:45.513Z,64.50
2022-10-20T22:28:12.651Z,57.93
2022-10-20T22:30:39.791Z,56.80
2022-10-20T22:33:06.957Z,57.63
2022-10-20T22:35:34.125Z,60.97
2022-10-20T22:38:01.267Z,66.60
2022-10-20T22:40:28.440Z,58.10
2022-10-20T22:42:55.574Z,64.13
2022-10-20T22:45:22.706Z,64.37
2022-10-20T22:47:49.903Z,64.17
2022-10-20T22:50:17.104Z,67.30
2022-10-20T22:52:44.287Z,70.33
2022-10-20T22:55:11.450Z,70.13
2022-10-20T22:57:38.624Z,87.93
2022-10-20T23:00:06.154Z,85.03
2022-10-20T23:02:33.473Z,108.00
2022-10-20T23:05:00.625Z,134.33
2022-10-20T23:07:27.759Z,162.17
2022-10-20T23:09:55.022Z,165.77
2022-10-20T23:12:22.171Z,156.63
2022-10-20T23:14:49.363Z,136.67
2022-10-20T23:17:16.522Z,133.63
2022-10-20T23:19:43.909Z,128.17
2022-10-20T23:22:11.145Z,95.97
2022-10-20T23:24:39.357Z,98.63
2022-10-20T23:27:06.486Z,100.93
2022-10-20T23:29:33.669Z,82.90
2022-10-20T23:32:00.836Z,71.70
2022-10-20T23:34:28.128Z,58.60
2022-10-20T23:36:55.331Z,68.70
2022-10-20T23:39:22.569Z,53.90
2022-10-20T23:41:49.703Z,54.87
2022-10-20T23:44:16.860Z,47.40
2022-10-20T23:46:44.049Z,49.27
2022-10-20T23:49:11.186Z,48.77
2022-10-20T23:51:38.366Z,44.63
2022-10-20T23:54:05.552Z,46.73
2022-10-20T23:56:32.699Z,43.67
2022-10-20T23:58:59.896Z,39.13
